createdAt,value
2022-09-12T00:16:14.089Z,68.37
2022-09-12T00:19:20.744Z,64.35
2022-09-12T00:22:31.578Z,61.89
2022-09-12T00:25:45.939Z,60.43
2022-09-12T00:29:39.802Z,54.99
2022-09-12T01:03:09.193Z,62.24
2022-09-12T01:06:27.453Z,61.05
2022-09-12T01:09:55.176Z,54.95
2022-09-12T01:13:37.517Z,54.58
2022-09-12T05:00:17.930Z,67.33
2022-09-12T05:02:45.445Z,63.63
2022-09-12T05:05:13.205Z,61.75
2022-09-12T05:07:40.763Z,57.38
2022-09-12T05:10:09.944Z,55.14
2022-09-12T05:12:37.208Z,56.58
2022-09-12T05:15:06.109Z,58.49
2022-09-12T05:17:33.665Z,66.95
2022-09-12T05:20:01.533Z,68.64
2022-09-12T05:22:28.980Z,64.38
2022-09-12T05:24:56.441Z,61.54
2022-09-12T05:27:24.107Z,57.99
2022-09-12T05:29:51.557Z,55.62
2022-09-12T05:32:19.029Z,56.98
2022-09-12T05:34:47.509Z,65.06
2022-09-12T05:37:14.955Z,67.02
2022-09-12T05:39:42.649Z,63.47
2022-09-12T05:42:10.180Z,61.13
2022-09-12T05:44:37.740Z,57.77
2022-09-12T05:47:05.820Z,55.41
2022-09-12T05:49:35.937Z,56.71
2022-09-12T05:52:03.396Z,64.62
2022-09-12T05:54:31.674Z,66.43
2022-09-12T05:56:59.836Z,62.56
2022-09-12T05:59:28.538Z,57.22
2022-09-12T06:01:56.672Z,55.07
2022-09-12T06:04:25.297Z,56.42
2022-09-12T06:06:53.258Z,58.17
2022-09-12T06:09:21.033Z,65.83
2022-09-12T06:11:48.693Z,67.00
2022-09-12T06:14:19.429Z,62.79
2022-09-12T06:16:48.153Z,57.22
2022-09-12T06:19:20.102Z,54.95
2022-09-12T06:21:49.390Z,57.17
2022-09-12T06:24:19.299Z,58.16
2022-09-12T06:26:49.593Z,65.44
2022-09-12T06:29:17.277Z,66.58
2022-09-12T06:31:45.658Z,61.18
2022-09-12T06:34:15.982Z,55.73
2022-09-12T06:36:47.641Z,54.07
2022-09-12T06:39:23.599Z,54.44
2022-09-12T06:41:52.176Z,55.41
2022-09-12T06:44:23.011Z,57.80
2022-09-12T06:46:50.668Z,66.18
2022-09-12T06:49:18.753Z,66.21
2022-09-12T06:51:46.409Z,57.91
2022-09-12T06:54:16.700Z,54.50
2022-09-12T06:56:44.920Z,54.79
2022-09-12T06:59:13.081Z,56.59
2022-09-12T07:01:41.998Z,59.54
2022-09-12T07:04:11.489Z,65.59
2022-09-12T07:06:44.267Z,64.70
2022-09-12T07:09:17.344Z,57.15
2022-09-12T07:11:46.503Z,53.54
2022-09-12T07:14:15.415Z,54.86
2022-09-12T07:16:44.285Z,56.45
2022-09-12T07:19:12.513Z,57.16
2022-09-12T07:21:40.889Z,57.26
2022-09-12T07:24:11.490Z,59.84
2022-09-12T07:26:41.726Z,66.87
2022-09-12T07:29:36.055Z,66.32
2022-09-12T07:32:06.877Z,57.40
2022-09-12T07:34:36.068Z,54.07
2022-09-12T07:37:03.933Z,55.29
2022-09-12T07:39:32.130Z,56.22
2022-09-12T07:42:00.412Z,57.82
2022-09-12T07:44:29.473Z,61.63
2022-09-12T07:46:56.826Z,68.39
2022-09-12T07:49:24.391Z,64.91
2022-09-12T07:51:52.152Z,56.58
2022-09-12T07:54:19.591Z,53.08
2022-09-12T07:56:46.945Z,54.41
2022-09-12T07:59:21.628Z,56.75
2022-09-12T08:02:03.598Z,58.12
2022-09-12T08:04:31.252Z,59.74
2022-09-12T08:06:59.631Z,60.09
2022-09-12T08:09:27.299Z,60.03
2022-09-12T08:11:54.637Z,61.31
2022-09-12T08:14:23.064Z,63.59
2022-09-12T08:16:50.584Z,68.85
2022-09-12T08:19:19.557Z,62.77
2022-09-12T08:21:46.777Z,55.59
2022-09-12T08:24:14.177Z,51.79
2022-09-12T08:26:41.438Z,53.82
2022-09-12T08:29:09.096Z,54.68
2022-09-12T08:31:36.860Z,56.17
2022-09-12T08:34:06.450Z,56.58
2022-09-12T08:36:34.453Z,59.09
2022-09-12T08:39:07.438Z,57.64
2022-09-12T08:41:49.316Z,59.75
2022-09-12T08:44:51.296Z,61.00
2022-09-12T08:47:43.797Z,59.96
2022-09-12T08:50:14.576Z,68.21
2022-09-12T08:52:47.926Z,65.79
2022-09-12T08:55:37.140Z,56.16
2022-09-12T08:58:26.905Z,53.13
2022-09-12T09:01:13.172Z,54.82
2022-09-12T09:03:56.340Z,55.08
2022-09-12T09:07:07.319Z,55.89
2022-09-12T09:10:10.818Z,57.47
2022-09-12T09:12:56.800Z,58.13
2022-09-12T09:15:51.299Z,58.53
2022-09-12T09:18:23.905Z,58.35
2022-09-12T09:21:29.824Z,58.55
2022-09-12T09:24:13.484Z,60.53
2022-09-12T09:26:53.011Z,59.85
2022-09-12T09:29:27.950Z,59.76
2022-09-12T09:32:00.948Z,59.92
2022-09-12T09:34:31.868Z,58.95
2022-09-12T09:37:17.150Z,59.91
2022-09-12T09:39:59.812Z,60.32
2022-09-12T09:42:46.703Z,61.43
2022-09-12T09:45:23.868Z,68.29
2022-09-12T09:48:13.450Z,63.41
2022-09-12T09:50:42.430Z,54.69
2022-09-12T09:53:29.490Z,51.15
2022-09-12T09:56:02.150Z,50.14
2022-09-12T09:58:35.328Z,50.45
2022-09-12T10:01:21.066Z,51.86
2022-09-12T10:03:52.370Z,53.03
2022-09-12T10:06:20.535Z,52.79
2022-09-12T10:08:50.573Z,54.07
2022-09-12T10:11:22.444Z,52.44
2022-09-12T10:14:57.611Z,53.42
2022-09-12T10:17:47.789Z,52.07
2022-09-12T10:20:37.635Z,54.64
2022-09-12T10:23:37.409Z,54.96
2022-09-12T10:26:14.211Z,54.78
2022-09-12T10:28:49.249Z,55.51
2022-09-12T10:31:29.314Z,56.26
2022-09-12T10:34:01.846Z,55.79
2022-09-12T10:36:39.529Z,55.15
2022-09-12T10:39:15.849Z,55.12
2022-09-12T10:41:43.191Z,54.46
2022-09-12T10:44:33.251Z,54.92
2022-09-12T10:47:22.652Z,56.01
2022-09-12T10:49:50.629Z,56.17
2022-09-12T10:52:24.371Z,54.93
2022-09-12T10:54:53.470Z,55.67
2022-09-12T10:57:46.489Z,54.64
2022-09-12T11:00:17.733Z,55.05
2022-09-12T11:03:04.950Z,54.97
2022-09-12T11:05:57.251Z,55.37
2022-09-12T11:08:53.930Z,55.65
2022-09-12T11:11:54.472Z,56.10
2022-09-12T11:15:09.749Z,55.81
2022-09-12T11:17:57.071Z,55.91
2022-09-12T11:20:45.737Z,55.01
2022-09-12T11:24:06.030Z,55.52
2022-09-12T11:26:45.177Z,56.29
2022-09-12T11:29:33.709Z,53.77
2022-09-12T11:32:39.277Z,53.36
2022-09-12T11:35:17.636Z,53.94
2022-09-12T11:38:09.512Z,53.29
2022-09-12T11:40:54.270Z,51.65
2022-09-12T11:43:46.822Z,53.15
2022-09-12T11:46:36.111Z,52.55
2022-09-12T11:49:13.170Z,52.61
2022-09-12T11:52:14.410Z,52.57
2022-09-12T11:54:44.759Z,53.22
2022-09-12T11:57:35.452Z,52.41
2022-09-12T12:00:31.670Z,52.37
2022-09-12T12:03:31.307Z,51.80
2022-09-12T12:06:15.749Z,52.90
2022-09-12T12:08:45.761Z,52.56
2022-09-12T12:11:44.668Z,52.96
2022-09-12T12:14:42.526Z,53.99
2022-09-12T12:17:21.462Z,53.79
2022-09-12T12:20:05.542Z,53.54
2022-09-12T12:22:35.925Z,52.78
2022-09-12T12:25:07.682Z,53.38
2022-09-12T12:28:05.261Z,54.22
2022-09-12T12:30:33.428Z,53.39
2022-09-12T12:33:12.972Z,53.73
2022-09-12T12:36:02.338Z,53.78
2022-09-12T12:38:40.762Z,52.67
2022-09-12T12:41:17.426Z,52.51
2022-09-12T12:43:54.190Z,53.94
2022-09-12T12:46:24.424Z,53.56
2022-09-12T12:49:18.604Z,52.46
2022-09-12T12:51:58.865Z,52.88
2022-09-12T12:54:46.500Z,52.61
2022-09-12T12:57:26.441Z,52.76
2022-09-12T13:00:06.567Z,52.90
2022-09-12T13:02:51.998Z,52.54
2022-09-12T13:05:24.266Z,52.93
2022-09-12T13:08:02.763Z,53.38
2022-09-12T13:10:31.568Z,53.86
2022-09-12T13:13:06.363Z,54.32
2022-09-12T13:15:36.756Z,54.93
2022-09-12T13:18:12.260Z,55.64
2022-09-12T13:21:20.482Z,56.28
2022-09-12T13:24:16.180Z,56.33
2022-09-12T13:26:47.545Z,56.00
2022-09-12T13:29:19.301Z,56.05
2022-09-12T13:31:53.104Z,56.16
2022-09-12T13:34:31.627Z,56.23
2022-09-12T13:37:51.374Z,56.50
2022-09-12T13:40:32.182Z,56.44
2022-09-12T13:43:18.442Z,55.88
2022-09-12T13:45:48.078Z,56.30
2022-09-12T13:48:23.828Z,55.97
2022-09-12T13:50:57.951Z,55.68
2022-09-12T13:53:36.362Z,54.95
2022-09-12T13:56:03.723Z,54.47
2022-09-12T13:58:36.754Z,54.72
2022-09-12T14:01:10.098Z,54.19
2022-09-12T14:04:12.182Z,55.07
2022-09-12T14:06:50.894Z,55.10
2022-09-12T14:09:45.703Z,54.94
2022-09-12T14:12:29.272Z,55.41
2022-09-12T14:14:57.407Z,54.82
2022-09-12T14:17:35.882Z,55.34
2022-09-12T14:20:14.319Z,54.29
2022-09-12T14:22:42.411Z,54.70
2022-09-12T14:25:41.201Z,55.42
2022-09-12T14:28:22.804Z,55.52
2022-09-12T14:31:15.606Z,54.87
2022-09-12T14:33:56.571Z,55.12
2022-09-12T14:36:35.040Z,55.46
2022-09-12T14:39:07.831Z,55.49
2022-09-12T14:41:41.762Z,55.31
2022-09-12T14:44:23.261Z,55.34
2022-09-12T14:46:52.191Z,55.44
2022-09-12T14:49:31.632Z,55.44
2022-09-12T14:52:04.249Z,55.03
2022-09-12T14:54:33.500Z,55.20
2022-09-12T14:57:39.086Z,55.32
2022-09-12T15:00:20.948Z,55.45
2022-09-12T15:02:52.341Z,55.04
2022-09-12T15:05:27.346Z,55.50
2022-09-12T15:07:59.623Z,54.98
2022-09-12T15:10:36.211Z,55.42
2022-09-12T15:13:09.382Z,55.71
2022-09-12T15:15:44.148Z,56.51
2022-09-12T15:18:12.086Z,56.43
2022-09-12T15:20:43.101Z,56.57
2022-09-12T15:23:19.705Z,56.88
2022-09-12T15:25:48.182Z,57.02
2022-09-12T15:28:21.322Z,57.11
2022-09-12T15:30:52.152Z,57.25
2022-09-12T15:33:23.760Z,57.10
2022-09-12T15:35:53.138Z,57.53
2022-09-12T15:38:25.751Z,57.69
2022-09-12T15:40:54.802Z,57.16
2022-09-12T15:43:23.722Z,57.77
2022-09-12T15:45:51.447Z,58.26
2022-09-12T15:48:20.689Z,58.73
2022-09-12T15:50:48.463Z,59.13
2022-09-12T15:53:17.767Z,59.18
2022-09-12T15:55:45.768Z,59.53
2022-09-12T15:58:13.181Z,59.96
2022-09-12T16:00:40.840Z,60.49
2022-09-12T16:03:33.901Z,60.18
2022-09-12T16:06:03.250Z,60.80
2022-09-12T16:08:32.743Z,61.39
2022-09-12T16:11:24.240Z,68.32
2022-09-12T16:13:53.903Z,72.76
2022-09-12T16:16:21.786Z,63.37
2022-09-12T16:18:49.650Z,56.50
2022-09-12T16:21:17.640Z,52.66
2022-09-12T16:23:47.460Z,52.72
2022-09-12T16:26:15.413Z,53.53
2022-09-12T16:28:43.601Z,54.72
2022-09-12T16:31:14.071Z,55.85
2022-09-12T16:33:42.312Z,57.24
2022-09-12T16:36:14.008Z,58.47
2022-09-12T16:38:44.080Z,59.38
2022-09-12T16:41:12.988Z,68.01
2022-09-12T16:43:42.603Z,70.32
2022-09-12T16:46:24.635Z,64.17
2022-09-12T16:48:56.260Z,57.58
2022-09-12T16:51:36.180Z,54.52
2022-09-12T16:54:05.060Z,54.89
2022-09-12T16:56:32.643Z,56.49
2022-09-12T16:59:00.402Z,57.66
2022-09-12T17:01:28.206Z,58.87
2022-09-12T17:03:58.125Z,59.76
2022-09-12T17:06:27.482Z,67.35
2022-09-12T17:09:00.787Z,68.54
2022-09-12T17:11:38.781Z,63.53
2022-09-12T17:14:08.703Z,57.64
2022-09-12T17:16:46.901Z,54.06
2022-09-12T17:19:32.200Z,54.49
2022-09-12T17:22:00.050Z,55.68
2022-09-12T17:24:27.640Z,57.47
2022-09-12T17:26:56.829Z,58.41
2022-09-12T17:29:24.160Z,65.91
2022-09-12T17:31:51.630Z,68.16
2022-09-12T17:34:19.180Z,62.78
2022-09-12T17:36:48.160Z,57.57
2022-09-12T17:39:15.940Z,54.61
2022-09-12T17:41:45.421Z,55.50
2022-09-12T17:44:14.822Z,57.11
2022-09-12T17:46:43.259Z,58.80
2022-09-12T17:49:18.404Z,66.84
2022-09-12T17:51:46.024Z,68.34
2022-09-12T17:54:17.475Z,64.19
2022-09-12T17:56:49.541Z,57.96
2022-09-12T17:59:24.341Z,54.65
2022-09-12T18:02:10.441Z,55.71
2022-09-12T18:04:38.501Z,57.46
2022-09-12T18:07:08.169Z,65.21
2022-09-12T18:09:36.100Z,68.49
2022-09-12T18:12:04.301Z,64.62
2022-09-12T18:14:31.760Z,59.08
2022-09-12T18:17:00.107Z,55.64
2022-09-12T18:19:28.921Z,57.00
2022-09-12T18:21:57.023Z,59.02
2022-09-12T18:24:25.362Z,66.67
2022-09-12T18:26:53.252Z,68.28
2022-09-12T18:29:21.111Z,64.20
2022-09-12T18:31:50.101Z,58.14
2022-09-12T18:34:18.282Z,54.54
2022-09-12T18:36:49.141Z,55.61
2022-09-12T18:39:17.999Z,57.26
2022-09-12T18:41:46.280Z,58.85
2022-09-12T18:44:13.645Z,67.29
2022-09-12T18:46:41.463Z,69.08
2022-09-12T18:49:09.762Z,64.54
2022-09-12T18:51:39.826Z,62.08
2022-09-12T18:54:13.065Z,56.98
2022-09-12T18:56:43.429Z,54.19
2022-09-12T18:59:14.047Z,55.74
2022-09-12T19:01:43.609Z,57.81
2022-09-12T19:04:13.615Z,65.78
2022-09-12T19:06:44.961Z,67.95
2022-09-12T19:09:17.201Z,63.32
2022-09-12T19:11:50.883Z,57.06
2022-09-12T19:14:25.823Z,54.02
2022-09-12T19:16:54.301Z,55.20
2022-09-12T19:19:22.261Z,57.41
2022-09-12T19:21:49.622Z,65.72
2022-09-12T19:24:17.245Z,67.69
2022-09-12T19:26:45.560Z,63.87
2022-09-12T19:29:14.564Z,58.46
2022-09-12T19:31:43.520Z,55.14
2022-09-12T19:34:13.303Z,55.95
2022-09-12T19:36:46.716Z,58.49
2022-09-12T19:39:19.251Z,66.82
2022-09-12T19:41:48.233Z,68.12
2022-09-12T19:44:15.808Z,62.80
2022-09-12T19:46:43.651Z,57.82
2022-09-12T19:49:12.581Z,55.77
2022-09-12T19:51:40.611Z,57.37
2022-09-12T19:54:08.322Z,58.68
2022-09-12T19:56:36.061Z,67.17
2022-09-12T19:59:04.320Z,68.71
2022-09-12T20:01:32.492Z,64.52
2022-09-12T20:04:00.261Z,61.53
2022-09-12T20:06:28.243Z,56.05
2022-09-12T20:08:56.403Z,53.50
2022-09-12T20:11:25.521Z,55.14
2022-09-12T20:13:53.677Z,57.22
2022-09-12T20:16:26.095Z,65.10
2022-09-12T20:18:58.521Z,68.02
2022-09-12T20:21:35.862Z,63.27
2022-09-12T20:24:08.220Z,58.11
2022-09-12T20:26:36.052Z,55.08
2022-09-12T20:29:05.557Z,57.34
2022-09-12T20:31:34.816Z,64.93
2022-09-12T20:34:03.960Z,67.22
2022-09-12T20:36:31.729Z,63.33
2022-09-12T20:39:02.182Z,57.24
2022-09-12T20:41:33.201Z,54.12
2022-09-12T20:44:00.863Z,55.39
2022-09-12T20:46:29.732Z,57.68
2022-09-12T20:48:58.448Z,65.51
2022-09-12T20:51:26.940Z,68.17
2022-09-12T20:53:55.901Z,63.49
2022-09-12T20:56:26.360Z,58.03
2022-09-12T20:58:55.745Z,55.91
2022-09-12T21:01:24.449Z,57.67
2022-09-12T21:03:52.302Z,66.04
2022-09-12T21:06:20.781Z,67.85
2022-09-12T21:08:50.161Z,63.83
2022-09-12T21:11:19.700Z,61.43
2022-09-12T21:13:47.740Z,56.44
2022-09-12T21:16:19.874Z,53.88
2022-09-12T21:18:52.491Z,55.08
2022-09-12T21:21:20.694Z,57.19
2022-09-12T21:23:50.471Z,65.28
2022-09-12T21:26:18.470Z,68.29
2022-09-12T21:28:45.922Z,64.27
2022-09-12T21:31:13.533Z,61.52
2022-09-12T21:33:41.150Z,57.53
2022-09-12T21:36:09.511Z,55.12
2022-09-12T21:38:37.279Z,56.99
2022-09-12T21:41:15.604Z,59.03
2022-09-12T21:43:43.761Z,67.92
2022-09-12T21:46:11.694Z,67.99
2022-09-12T21:48:39.305Z,64.58
2022-09-12T21:51:07.482Z,62.44
2022-09-12T21:53:35.740Z,57.61
2022-09-12T21:56:08.654Z,54.98
2022-09-12T21:58:37.126Z,55.86
2022-09-12T22:05:10.848Z,68.92
2022-09-12T22:08:39.603Z,67.19
2022-09-12T22:11:52.601Z,63.10
2022-09-12T22:15:39.084Z,56.30
2022-09-12T22:18:46.914Z,54.54
2022-09-12T22:22:23.589Z,57.30
2022-09-12T22:25:32.753Z,71.65
2022-09-12T22:28:37.910Z,68.35
2022-09-12T22:31:46.046Z,63.60
2022-09-12T22:35:11.564Z,56.69
2022-09-12T22:38:21.575Z,54.92
2022-09-12T22:41:50.784Z,56.88
2022-09-12T22:44:57.634Z,69.89
2022-09-12T22:48:09.033Z,67.29
2022-09-12T22:51:15.555Z,62.99
2022-09-12T22:54:48.359Z,55.86
2022-09-12T22:57:56.486Z,53.58
2022-09-12T23:01:25.813Z,55.71
2022-09-12T23:04:34.716Z,68.00
2022-09-12T23:08:03.902Z,66.47
2022-09-12T23:11:19.771Z,62.27
2022-09-12T23:14:49.771Z,53.74
2022-09-12T23:17:59.531Z,52.07
2022-09-12T23:21:33.813Z,54.19
2022-09-12T23:24:41.479Z,56.57
2022-09-12T23:27:48.458Z,69.71
2022-09-12T23:30:56.604Z,68.05
2022-09-12T23:34:05.883Z,62.27
2022-09-12T23:37:12.385Z,55.19
2022-09-12T23:40:43.732Z,53.97
2022-09-12T23:44:13.123Z,56.00
2022-09-12T23:47:18.242Z,69.50
2022-09-12T23:50:24.715Z,66.54
2022-09-12T23:53:32.383Z,60.59
2022-09-12T23:56:39.662Z,54.75
